Terminal Aerodrome Forecast
Issued by NWS Greer, SC

Home | Current Version | Previous Version | Text Only | Print | Product List | Glossary On
Versions: 1 2 3 4 5 6 7 8 9 10 11 12 13 14 15 16 17 18 19
228
FTUS42 KGSP 221740
TAFGSP
TAF
KGSP 221740Z 2218/2318 24005KT P6SM VCSH BKN020
      TEMPO 2219/2223 VRB10G20KT 4SM -TSRA OVC035CB
     FM230300 VRB02KT 6SM BR VCSH OVC070 PROB30 2303/2307 4SM -TSRA
      BR OVC025CB
     FM230700 VRB03KT 4SM -SHRA BR OVC008
     FM231400 07006KT 3SM SHRA BR OVC006=

USA.gov is the U.S. government's official web portal to all federal, state and local government web resources and services.